Sunday, November 19, 2017, 11:16 PM EST
Back to Local

KBVY, Beverly Municipal Airport

Location: Danvers, MA, United States Lat: 42.583
Local Time: 11:16 PM EST ( 4:16 GMT) Lon: -70.917
Time Zone: US/Eastern Elev: 108 ft

Show me the last for .
Show Decoded

2017-11-19 22:53 METAR KBVY 200353Z AUTO 27007KT 10SM CLR 02/M06 A2961 RMK AO2 SLP022 T00221056 =
2017-11-19 21:53 METAR KBVY 200253Z AUTO 30007KT 10SM CLR 02/M05 A2959 RMK AO2 SLP017 T00221050
                 51029 =
2017-11-19 20:53 METAR KBVY 200153Z AUTO 29005KT 10SM BKN041 03/M04 A2958 RMK AO2 SLP013
                 T00331039 =
2017-11-19 19:53 METAR KBVY 200053Z 29012G20KT 10SM CLR 04/M04 A2954 RMK AO2 PK WND 28027/0035
                 SLP000 LAST T00391044 =
2017-11-19 18:53 METAR KBVY 192353Z 27012G20KT 10SM FEW044 04/M04 A2951 RMK AO2 SLP988 T00391039
                 10100 20039 51054 =
2017-11-19 17:53 METAR KBVY 192253Z 27013G20KT 10SM CLR 04/M03 A2946 RMK AO2 PK WND 28027/2206
                 SLP972 T00441028 =
2017-11-19 16:53 METAR KBVY 192153Z 29021G28KT 10SM CLR 06/M03 A2941 RMK AO2 PK WND 28030/2109
                 PRESRR SLP955 T00611028 =
2017-11-19 15:53 METAR KBVY 192053Z 27010G22KT 10SM SCT042 07/M01 A2935 RMK AO2 PK WND 27032/2000
                 PRESRR SLP934 T00721006 53059 =
2017-11-19 14:53 METAR KBVY 191953Z 28016G31KT 10SM SCT043 08/00 A2928 RMK AO2 PK WND 28035/1858
                 SLP911 T00830000 =
2017-11-19 13:53 METAR KBVY 191853Z 27018G33KT 10SM CLR 09/01 A2923 RMK AO2 PK WND 28037/1842
                 SLP894 T00940006 =
2017-11-19 12:53 METAR KBVY 191753Z 28014G31KT 10SM BKN070 10/04 A2917 RMK AO2 PK WND 28033/1715
                 WSHFT 1636 RAE00 SLP875 P0003 60015 T01000039 10156 20094 53015 =
2017-11-19 11:56 METAR KBVY 191656Z 28016G33KT 7SM -RA FEW020 BKN041 OVC055 10/07 A2914 RMK AO2
                 WSHFT 1636 PRESRR P0000 T01000072 =
2017-11-19 11:49 METAR KBVY 191649Z 28023G33KT 7SM -RA FEW018 BKN034 OVC070 11/08 A2914 RMK AO2
                 PK WND 28033/1648 WSHFT 1634 RAE24B40 PRESRR SLP862 P0004 T01060083 =
2017-11-19 11:48 METAR KBVY 191648Z 28023G33KT 3SM -RA BR FEW018 BKN034 OVC075 11/09 A2913 RMK
                 AO2 PK WND 28033/1648 WSHFT 1634 RAE24B40 PRESRR P0004 =
2017-11-19 11:23 METAR KBVY 191623Z 22012G24KT 10SM -RA SCT016 BKN055 OVC070 15/12 A2910 RMK AO2
                 PK WND 23028/1609 P0003 T01500122 =
2017-11-19 10:53 METAR KBVY 191553Z 20011KT 8SM -RA SCT015 BKN020 OVC026 16/13 A2910 RMK AO2
                 RAB07E27B45 SLP849 P0000 T01560133 =
2017-11-19 09:53 METAR KBVY 191453Z 18011KT 10SM BKN016 BKN022 OVC031 15/14 A2913 RMK AO2 RAE35
                 SLP859 P0003 60008 T01500139 58008 =
2017-11-19 08:53 METAR KBVY 191353Z 18009KT 8SM -RA BKN018 BKN033 OVC049 15/14 A2915 RMK AO2
                 RAB32 SLP867 P0001 T01500139 =
2017-11-19 08:14 METAR KBVY 191314Z 19009KT 10SM SCT016 BKN023 BKN110 14/14 A2917 RMK AO2 P0001
                 T01440139 =
2017-11-19 07:53 METAR KBVY 191253Z 18010KT 10SM SCT015 BKN095 OVC110 14/14 A2916 RMK AO2 RAE53
                 SLP868 P0004 T01440139 =
2017-11-19 06:53 METAR KBVY 191153Z 19010KT 8SM -RA FEW012 BKN016 OVC070 14/13 A2921 RMK AO2
                 SLP885 P0002 60006 70018 T01440133 10144 20106 56029 =
2017-11-19 06:13 METAR KBVY 191113Z AUTO 18009KT 8SM -RA BKN017 BKN033 OVC060 14/13 A2921 RMK AO2
                 P0002 T01440133 =
2017-11-19 05:53 METAR KBVY 191053Z AUTO 18009KT 7SM -RA SCT019 BKN055 OVC080 14/13 A2922 RMK AO2
                 SLP891 P0003 T01440133 =
2017-11-19 04:53 METAR KBVY 190953Z AUTO 18008KT 8SM -RA SCT027 BKN034 OVC100 14/13 A2925 RMK AO2
                 RAB27 SLP902 P0001 T01440128 =
2017-11-19 04:24 METAR KBVY 190924Z AUTO 17009KT 10SM OVC029 14/12 A2927 RMK AO2 PRESFR T01390122
                 =
2017-11-19 04:13 METAR KBVY 190913Z AUTO 18007KT 10SM OVC031 14/12 A2929 RMK AO2 T01390122 =
2017-11-19 03:53 METAR KBVY 190853Z AUTO 18010KT 9SM OVC029 14/12 A2929 RMK AO2 SLP915 60000
                 T01390122 58044 =
2017-11-19 03:09 METAR KBVY 190809Z AUTO 17006KT 9SM FEW020 OVC029 13/12 A2932 RMK AO2 T01280117
                 =
2017-11-19 02:53 METAR KBVY 190753Z AUTO 16005KT 9SM FEW019 OVC030 12/12 A2933 RMK AO2 RAB08E21
                 SLP928 P0000 T01220117 =
2017-11-19 02:02 METAR KBVY 190702Z AUTO 16008KT 9SM FEW015 SCT020 OVC033 12/11 A2937 RMK AO2
                 T01170106 =
2017-11-19 01:53 METAR KBVY 190653Z AUTO 16009KT 10SM BKN015 BKN035 OVC120 11/11 A2938 RMK AO2
                 RAE40 SLP947 P0000 T01110106 =
2017-11-19 01:10 METAR KBVY 190610Z AUTO 16007KT 10SM -RA BKN014 OVC021 11/09 A2941 RMK AO2 P0000
                 T01060094 =
2017-11-19 00:53 METAR KBVY 190553Z AUTO 15006KT 8SM -RA BKN020 BKN040 OVC090 11/09 A2942 RMK AO2
                 SLP959 P0002 60012 T01060094 10106 20089 58040 =
2017-11-18 23:53 METAR KBVY 190453Z AUTO 19005KT 10SM -RA OVC050 11/09 A2948 RMK AO2 RAE04B23
                 SLP978 P0000 T01060094 401061044 =
2017-11-18 23:39 METAR KBVY 190439Z AUTO 18007KT 10SM -RA SCT021 OVC050 11/09 A2949 RMK AO2
                 RAE04B23 P0000 T01060094 =

Support USWX by starting your Amazon purchase here.